KNIP/NIP METAR and TAF weather

Enter ICAO airport designator
Station Type Date Time Source
KNIP METAR 2019/12/13 16:53 UTC NOAA

KNIP 131653Z 03004KT 7SM SCT003 OVC005 20/18 A2996 RMK AO2 SLP139 T02000178 $


Station Type Date Time Source
KNIP Decoded METAR 2019/12/13 16:53 UTC NOAA

JACKSONVILLE NAVAL AIR STN, FL, United States (KNIP) 30-14N 81-40W 8M
Dec 13, 2019 - 11:53 AM EST / 2019.12.13 1653 UTC
Wind: from the NNE (030 degrees) at 5 MPH (4 KT):0
Visibility: 7 mile(s):0
Sky conditions: overcast
Temperature: 68.0 F (20.0 C)
Dew Point: 64.0 F (17.8 C)
Relative Humidity: 87%
Pressure (altimeter): 29.96 in. Hg (1014 hPa)
ob: KNIP 131653Z 03004KT 7SM SCT003 OVC005 20/18 A2996 RMK AO2 SLP139 T02000178
cycle: 17

Station Type Date Time Source
KNIP TAF 2019/12/13 15:58 UTC NOAA

TAF KNIP 1315/1415 24010KT 9999 VCSH SCT002 BKN005 OVC015 641209 531809 532709 533609 QNH2996INS
TEMPO 1315/1317 VRB05KT 6000 -RA BR SCT005 BKN015 OVC030
FM131700 21010KT 9999 VCTS SCT015 BKN030CB BKN100 OVC200 641209 531809 532709 533609 QNH2984INS
TEMPO 1317/1323 VRB15G25KT 1600 +TSRA BR BKN005 OVC015CB
FM132300 21007KT 9999 SCT020 BKN060 BKN150 BKN250 641209 531809 532709 533609 QNH2976INS
FM140400 21009KT 9999 VCSH SCT010 BKN030 BKN100 OVC250 641209 510009 531809 532709 533609 QNH2971INS
FM140700 24012G20KT 8000 -SHRA VCTS SCT008 BKN015CB OVC030 641209 520009 531809 532709 533609 QNH2968INS
TEMPO 1407/1413 VRB20G40KT 1600 +TSRA BR SCT005 OVC015CB T22/1320Z T17/1413Z FN20061

Example: see airport list